createdAt,value
2022-09-27T00:00:06.241Z,9.93
2022-09-27T00:02:58.120Z,10.30
2022-09-27T00:05:24.386Z,8.70
2022-09-27T00:07:52.493Z,9.23
2022-09-27T00:10:18.984Z,9.77
2022-09-27T00:12:45.276Z,8.57
2022-09-27T00:15:11.919Z,9.63
2022-09-27T00:17:38.192Z,9.27
2022-09-27T00:20:06.205Z,9.53
2022-09-27T00:22:32.950Z,9.60
2022-09-27T00:24:59.056Z,9.03
2022-09-27T00:27:26.535Z,9.57
2022-09-27T00:29:53.322Z,8.43
2022-09-27T00:32:19.796Z,9.63
2022-09-27T00:34:46.195Z,8.60
2022-09-27T00:37:12.310Z,8.73
2022-09-27T00:39:39.306Z,8.30
2022-09-27T00:42:09.244Z,9.53
2022-09-27T00:44:38.896Z,9.20
2022-09-27T00:47:18.269Z,8.27
2022-09-27T00:50:00.121Z,8.80
2022-09-27T00:52:33.547Z,8.37
2022-09-27T00:55:09.006Z,8.97
2022-09-27T00:57:35.449Z,8.83
2022-09-27T01:00:06.555Z,9.47
2022-09-27T01:02:35.695Z,8.93
2022-09-27T01:05:04.889Z,9.00
2022-09-27T01:07:31.255Z,8.40
2022-09-27T01:09:57.812Z,9.77
2022-09-27T01:12:48.977Z,9.10
2022-09-27T01:15:42.604Z,7.87
2022-09-27T01:18:32.135Z,8.53
2022-09-27T01:21:22.103Z,9.03
2022-09-27T01:24:17.737Z,10.30
2022-09-27T01:27:08.723Z,9.17
2022-09-27T01:29:55.497Z,9.33
2022-09-27T01:33:03.780Z,9.40
2022-09-27T01:35:44.947Z,9.07
2022-09-27T01:38:29.387Z,9.60
2022-09-27T01:41:09.266Z,8.37
2022-09-27T01:44:03.783Z,9.00
2022-09-27T01:46:41.295Z,9.07
2022-09-27T01:49:22.699Z,8.93
2022-09-27T01:51:54.538Z,9.27
2022-09-27T01:54:29.623Z,9.03
2022-09-27T01:57:16.621Z,7.90
2022-09-27T01:59:49.892Z,7.67
2022-09-27T02:02:41.561Z,7.70
2022-09-27T02:05:52.727Z,6.67
2022-09-27T02:08:51.413Z,7.83
2022-09-27T02:11:28.806Z,9.23
2022-09-27T02:14:19.420Z,7.80
2022-09-27T02:17:08.057Z,6.37
2022-09-27T02:19:45.271Z,6.50
2022-09-27T02:22:24.192Z,6.17
2022-09-27T02:24:57.983Z,7.60
2022-09-27T02:27:35.486Z,8.20
2022-09-27T02:30:12.917Z,8.60
2022-09-27T02:32:42.058Z,9.07
2022-09-27T02:35:17.996Z,9.07
2022-09-27T02:37:45.559Z,9.93
2022-09-27T02:40:13.059Z,10.73
2022-09-27T02:42:42.301Z,10.93
2022-09-27T02:45:11.328Z,10.07
2022-09-27T02:47:46.751Z,10.27
2022-09-27T02:50:36.990Z,11.33
2022-09-27T02:53:37.955Z,11.00
2022-09-27T02:56:27.458Z,11.43
2022-09-27T02:59:32.409Z,12.47
2022-09-27T03:02:52.953Z,10.87
2022-09-27T03:06:08.686Z,12.53
2022-09-27T03:08:37.202Z,12.00
2022-09-27T03:11:03.979Z,11.80
2022-09-27T03:13:31.042Z,12.00
2022-09-27T03:16:01.588Z,11.70
2022-09-27T03:18:51.460Z,10.73
2022-09-27T03:21:53.343Z,11.10
2022-09-27T03:24:19.611Z,11.10
2022-09-27T03:26:46.668Z,10.73
2022-09-27T03:29:13.356Z,10.73
2022-09-27T03:31:43.760Z,10.43
2022-09-27T03:34:29.537Z,10.60
2022-09-27T03:36:56.013Z,10.63
2022-09-27T03:39:22.201Z,10.50
2022-09-27T03:41:48.546Z,9.83
2022-09-27T03:44:15.177Z,9.90
2022-09-27T03:46:41.306Z,9.93
2022-09-27T03:49:07.801Z,9.07
2022-09-27T03:51:33.963Z,9.37
2022-09-27T03:54:00.192Z,9.27
2022-09-27T03:56:28.289Z,9.10
2022-09-27T03:58:54.618Z,9.07
2022-09-27T04:01:21.155Z,8.37
2022-09-27T04:03:53.566Z,8.77
2022-09-27T04:06:32.576Z,8.03
2022-09-27T04:08:59.143Z,8.17
2022-09-27T04:11:35.771Z,7.93
2022-09-27T04:14:04.418Z,8.07
2022-09-27T04:16:34.443Z,7.60
2022-09-27T04:19:19.324Z,7.87
2022-09-27T04:21:50.350Z,7.87
2022-09-27T04:24:17.439Z,7.50
2022-09-27T04:26:56.102Z,7.07
2022-09-27T04:29:25.395Z,6.77
2022-09-27T04:31:53.436Z,7.80
2022-09-27T04:34:48.595Z,7.90
2022-09-27T04:37:20.978Z,6.70
2022-09-27T04:39:49.319Z,7.67
2022-09-27T04:42:16.264Z,7.67
2022-09-27T04:44:45.246Z,7.33
2022-09-27T04:47:11.946Z,7.67
2022-09-27T04:49:38.155Z,8.13
2022-09-27T04:52:05.429Z,7.67
2022-09-27T04:54:32.356Z,7.77
2022-09-27T04:57:12.102Z,7.83
2022-09-27T04:59:41.238Z,7.83
2022-09-27T05:02:07.602Z,8.20
2022-09-27T05:05:09.805Z,8.63
2022-09-27T05:07:40.915Z,8.60
2022-09-27T05:10:13.133Z,8.43
2022-09-27T05:12:39.983Z,8.30
2022-09-27T05:15:07.976Z,8.90
2022-09-27T05:17:34.354Z,8.13
2022-09-27T05:20:34.137Z,8.50
2022-09-27T05:23:08.755Z,9.10
2022-09-27T05:25:34.873Z,9.70
2022-09-27T05:28:01.249Z,9.90
2022-09-27T05:30:28.234Z,9.53
2022-09-27T05:33:04.497Z,10.13
2022-09-27T05:35:55.445Z,9.23
2022-09-27T05:38:25.175Z,10.20
2022-09-27T05:40:54.913Z,10.10
2022-09-27T05:43:21.042Z,9.90
2022-09-27T05:45:48.546Z,9.20
2022-09-27T05:48:18.386Z,9.53
2022-09-27T05:50:52.384Z,9.63
2022-09-27T05:53:18.789Z,9.83
2022-09-27T05:55:44.877Z,10.00
2022-09-27T05:58:15.426Z,10.93
2022-09-27T06:01:06.132Z,9.23
2022-09-27T06:03:47.439Z,10.17
2022-09-27T06:06:36.733Z,10.50
2022-09-27T06:09:03.458Z,9.93
2022-09-27T06:11:29.686Z,10.87
2022-09-27T06:13:56.679Z,10.10
2022-09-27T06:16:23.934Z,9.63
2022-09-27T06:18:51.359Z,9.90
2022-09-27T06:21:18.086Z,10.07
2022-09-27T06:23:54.182Z,10.17
2022-09-27T06:26:27.168Z,9.97
2022-09-27T06:29:11.904Z,10.43
2022-09-27T06:31:43.754Z,9.40
2022-09-27T06:34:22.567Z,9.90
2022-09-27T06:36:51.479Z,9.73
2022-09-27T06:39:19.120Z,9.60
2022-09-27T06:42:03.296Z,10.17
2022-09-27T06:44:50.276Z,9.70
2022-09-27T06:47:35.542Z,9.67
2022-09-27T06:50:20.694Z,9.23
2022-09-27T06:52:48.896Z,9.67
2022-09-27T06:55:16.091Z,9.97
2022-09-27T06:58:00.883Z,9.93
2022-09-27T07:00:28.314Z,10.37
2022-09-27T07:03:14.118Z,9.53
2022-09-27T07:06:05.571Z,10.23
2022-09-27T07:08:51.390Z,9.40
2022-09-27T07:11:19.283Z,9.23
2022-09-27T07:13:45.471Z,9.13
2022-09-27T07:16:13.091Z,9.20
2022-09-27T07:18:41.062Z,9.17
2022-09-27T07:21:08.250Z,9.13
2022-09-27T07:23:36.788Z,8.77
2022-09-27T07:26:06.269Z,8.90
2022-09-27T07:28:33.927Z,9.00
2022-09-27T07:31:02.172Z,8.93
2022-09-27T07:33:29.543Z,9.10
2022-09-27T07:35:56.213Z,9.07
2022-09-27T07:38:23.750Z,8.27
2022-09-27T07:40:50.942Z,10.27
2022-09-27T07:43:18.776Z,14.50
2022-09-27T07:45:45.715Z,10.97
2022-09-27T07:48:32.198Z,8.07
2022-09-27T07:51:03.586Z,12.43
2022-09-27T07:54:06.539Z,40.30
2022-09-27T07:56:34.670Z,9.70
2022-09-27T07:59:01.708Z,7.90
2022-09-27T08:01:29.338Z,8.20
2022-09-27T08:03:57.878Z,7.03
2022-09-27T08:06:24.491Z,6.73
2022-09-27T08:08:52.198Z,6.37
2022-09-27T08:11:18.504Z,6.57
2022-09-27T08:13:49.105Z,7.50
2022-09-27T08:16:16.469Z,6.77
2022-09-27T08:19:08.496Z,7.63
2022-09-27T08:21:58.917Z,7.73
2022-09-27T08:24:30.425Z,6.43
2022-09-27T08:27:15.376Z,5.23
2022-09-27T08:29:56.867Z,5.40
2022-09-27T08:32:23.670Z,4.80
2022-09-27T08:34:50.987Z,7.83
2022-09-27T08:37:17.330Z,6.30
2022-09-27T08:39:47.710Z,9.93
2022-09-27T08:42:39.216Z,6.03
2022-09-27T08:45:17.132Z,5.20
2022-09-27T08:47:52.280Z,5.37
2022-09-27T08:50:26.406Z,5.13
2022-09-27T08:53:10.769Z,5.40
2022-09-27T08:55:44.028Z,5.00
2022-09-27T08:58:31.487Z,6.03
2022-09-27T09:01:02.571Z,5.67
2022-09-27T09:03:39.377Z,6.30
2022-09-27T09:06:39.058Z,5.20
2022-09-27T09:09:42.581Z,6.20
2022-09-27T09:12:58.485Z,14.47
2022-09-27T09:15:54.662Z,14.33
2022-09-27T09:18:51.503Z,9.90
2022-09-27T09:21:58.300Z,7.40
2022-09-27T09:24:38.550Z,6.67
2022-09-27T09:27:16.444Z,7.90
2022-09-27T09:30:06.315Z,7.80
2022-09-27T09:33:02.006Z,10.20
2022-09-27T09:35:36.833Z,12.87
2022-09-27T09:38:10.449Z,9.67
2022-09-27T09:40:45.958Z,8.73
2022-09-27T09:43:25.491Z,8.47
2022-09-27T09:46:06.689Z,7.40
2022-09-27T09:48:49.140Z,7.20
2022-09-27T09:51:21.642Z,7.23
2022-09-27T09:54:02.080Z,7.87
2022-09-27T09:56:37.913Z,7.73
2022-09-27T09:59:13.387Z,6.77
2022-09-27T10:01:44.382Z,13.67
2022-09-27T10:04:33.349Z,8.83
2022-09-27T10:07:01.459Z,10.70
2022-09-27T10:09:32.911Z,13.67
2022-09-27T10:12:19.397Z,8.50
2022-09-27T10:14:48.549Z,8.97
2022-09-27T10:17:19.555Z,8.60
2022-09-27T10:19:47.894Z,8.00
2022-09-27T10:22:28.555Z,8.43
2022-09-27T10:25:02.598Z,7.97
2022-09-27T10:27:53.596Z,7.83
2022-09-27T10:30:28.603Z,7.07
2022-09-27T10:33:15.207Z,7.47
2022-09-27T10:35:47.444Z,17.33
2022-09-27T10:38:33.250Z,21.57
2022-09-27T10:41:22.956Z,7.80
2022-09-27T10:43:49.820Z,7.50
2022-09-27T10:46:32.345Z,7.40
2022-09-27T10:49:21.634Z,6.83
2022-09-27T10:51:53.928Z,7.33
2022-09-27T10:54:28.190Z,22.83
2022-09-27T10:56:59.701Z,9.23
2022-09-27T10:59:29.970Z,7.13
2022-09-27T11:01:57.582Z,7.07
2022-09-27T11:04:37.870Z,7.50
2022-09-27T11:07:19.234Z,6.83
2022-09-27T11:09:54.035Z,7.13
2022-09-27T11:12:22.403Z,7.50
2022-09-27T11:14:57.926Z,7.63
2022-09-27T11:17:32.054Z,7.47
2022-09-27T11:20:29.947Z,7.17
2022-09-27T11:23:18.315Z,7.53
2022-09-27T11:25:44.415Z,6.90
2022-09-27T11:28:31.197Z,6.00
2022-09-27T11:31:11.519Z,6.23
2022-09-27T11:33:47.403Z,6.10
2022-09-27T11:36:33.430Z,6.27
2022-09-27T11:39:24.181Z,6.73
2022-09-27T11:41:58.556Z,5.90
2022-09-27T11:44:37.121Z,7.17
2022-09-27T11:47:26.632Z,6.57
2022-09-27T11:50:15.020Z,6.97
2022-09-27T11:52:50.587Z,7.80
2022-09-27T11:55:26.549Z,8.17
2022-09-27T11:58:08.167Z,8.13
2022-09-27T12:01:07.606Z,7.97
2022-09-27T12:03:47.947Z,7.13
2022-09-27T12:06:20.369Z,7.53
2022-09-27T12:09:01.884Z,6.80
2022-09-27T12:11:41.226Z,6.20
2022-09-27T12:14:29.801Z,6.50
2022-09-27T12:16:59.094Z,5.67
2022-09-27T12:19:29.998Z,5.83
2022-09-27T12:22:05.874Z,7.87
2022-09-27T12:24:37.582Z,6.30
2022-09-27T12:27:20.944Z,6.33
2022-09-27T12:29:49.057Z,5.70
2022-09-27T12:32:29.085Z,6.23
2022-09-27T12:35:04.435Z,5.60
2022-09-27T12:37:37.222Z,5.93
2022-09-27T12:40:18.019Z,14.23
2022-09-27T12:42:50.176Z,6.60
2022-09-27T12:45:35.098Z,6.70
2022-09-27T12:48:16.866Z,8.00
2022-09-27T12:50:57.935Z,7.30
2022-09-27T12:53:34.751Z,6.00
2022-09-27T12:56:17.806Z,6.67
2022-09-27T12:59:02.455Z,6.83
2022-09-27T13:02:04.247Z,7.47
2022-09-27T13:04:34.248Z,5.80
2022-09-27T13:07:27.348Z,6.80
2022-09-27T13:10:04.416Z,15.33
2022-09-27T13:12:33.429Z,6.93
2022-09-27T13:15:31.152Z,8.80
2022-09-27T13:18:01.359Z,5.80
2022-09-27T13:20:36.264Z,6.30
2022-09-27T13:23:15.733Z,5.77
2022-09-27T13:25:59.050Z,5.60
2022-09-27T13:28:47.507Z,5.03
2022-09-27T13:32:01.008Z,5.23
2022-09-27T13:34:42.732Z,5.67
2022-09-27T13:37:39.131Z,5.53
2022-09-27T13:40:22.241Z,5.50
2022-09-27T13:43:10.731Z,4.73
2022-09-27T13:45:56.612Z,5.27
2022-09-27T13:48:37.006Z,5.30
2022-09-27T13:51:18.169Z,5.70
2022-09-27T13:53:57.394Z,5.20
2022-09-27T13:56:36.071Z,3.77
2022-09-27T13:59:49.255Z,4.20
2022-09-27T14:03:00.428Z,4.67
2022-09-27T14:05:41.265Z,11.13
2022-09-27T14:08:29.784Z,9.83
2022-09-27T14:10:58.021Z,9.70
2022-09-27T14:13:26.618Z,9.60
2022-09-27T14:16:04.524Z,6.97
2022-09-27T14:18:35.608Z,5.93
2022-09-27T14:21:19.053Z,4.70
2022-09-27T14:24:18.817Z,5.53
2022-09-27T14:26:45.274Z,6.47
2022-09-27T14:29:21.898Z,6.80
2022-09-27T14:32:04.029Z,9.70
2022-09-27T14:34:43.359Z,8.67
2022-09-27T14:37:25.217Z,7.53
2022-09-27T14:40:18.454Z,8.90
2022-09-27T14:42:44.695Z,9.30
2022-09-27T14:45:25.899Z,8.50
2022-09-27T14:47:52.765Z,11.00
2022-09-27T14:50:30.376Z,7.27
2022-09-27T14:52:59.110Z,20.77
2022-09-27T14:55:28.538Z,10.13
2022-09-27T14:57:58.111Z,6.80
2022-09-27T15:00:31.451Z,7.50
2022-09-27T15:03:00.145Z,6.10
2022-09-27T15:05:29.787Z,7.23
2022-09-27T15:07:57.781Z,6.47
2022-09-27T15:10:27.655Z,7.10
2022-09-27T15:12:59.117Z,6.10
2022-09-27T15:15:31.115Z,5.83
2022-09-27T15:18:01.336Z,8.10
2022-09-27T15:20:35.414Z,8.17
2022-09-27T15:23:04.560Z,9.83
2022-09-27T15:25:37.912Z,7.63
2022-09-27T15:28:06.238Z,7.47
2022-09-27T15:30:37.531Z,7.10
2022-09-27T15:33:06.987Z,7.77
2022-09-27T15:35:35.756Z,9.47
2022-09-27T15:38:24.206Z,9.97
2022-09-27T15:40:50.879Z,7.57
2022-09-27T15:43:19.515Z,6.63
2022-09-27T15:45:52.589Z,9.90
2022-09-27T15:48:20.238Z,9.77
2022-09-27T15:50:48.249Z,9.70
2022-09-27T15:53:33.425Z,12.57
2022-09-27T15:56:01.740Z,15.27
2022-09-27T15:58:28.785Z,12.03
2022-09-27T16:01:01.956Z,11.17
2022-09-27T16:03:29.179Z,12.77
2022-09-27T16:05:56.696Z,34.80
2022-09-27T16:08:24.004Z,16.63
2022-09-27T16:10:52.929Z,10.07
2022-09-27T16:13:19.376Z,8.50
2022-09-27T16:15:47.157Z,9.43
2022-09-27T16:18:14.047Z,9.43
2022-09-27T16:20:40.669Z,8.90
2022-09-27T16:23:06.956Z,8.90
2022-09-27T16:25:33.747Z,3.60
2022-09-27T16:28:01.010Z,1.97
2022-09-27T16:30:28.781Z,2.33
2022-09-27T16:32:55.460Z,1.40
2022-09-27T16:35:23.394Z,1.30
2022-09-27T16:37:49.804Z,1.43
2022-09-27T16:40:19.343Z,1.03
2022-09-27T16:42:49.714Z,0.73
2022-09-27T16:45:19.184Z,1.40
2022-09-27T16:47:47.047Z,0.73
2022-09-27T16:50:33.094Z,1.10
2022-09-27T16:53:00.655Z,1.03
2022-09-27T16:55:28.026Z,1.00
2022-09-27T16:57:57.653Z,1.40
2022-09-27T17:00:25.919Z,2.00
2022-09-27T17:02:53.066Z,1.23
2022-09-27T17:05:19.577Z,1.53
2022-09-27T17:07:50.290Z,1.10
2022-09-27T17:10:17.257Z,1.20
2022-09-27T17:12:43.493Z,1.20
2022-09-27T17:15:10.010Z,1.40
2022-09-27T17:17:36.253Z,1.47
2022-09-27T17:20:02.816Z,1.50
2022-09-27T17:22:30.447Z,1.37
2022-09-27T17:24:57.328Z,1.30
2022-09-27T17:27:27.244Z,1.80
2022-09-27T17:29:54.638Z,1.63
2022-09-27T17:32:23.510Z,2.77
2022-09-27T17:34:51.016Z,3.73
2022-09-27T17:37:18.147Z,4.03
2022-09-27T17:39:44.569Z,4.53
2022-09-27T17:42:11.968Z,4.63
2022-09-27T17:44:38.879Z,3.17
2022-09-27T17:47:23.918Z,3.07
2022-09-27T17:50:08.964Z,2.80
2022-09-27T17:52:35.301Z,3.53
2022-09-27T17:55:02.896Z,3.60
2022-09-27T17:57:29.637Z,5.33
2022-09-27T17:59:57.230Z,7.60
2022-09-27T18:02:24.934Z,6.83
2022-09-27T18:04:51.398Z,6.77
2022-09-27T18:07:19.051Z,8.40
2022-09-27T18:09:49.938Z,9.13
2022-09-27T18:12:16.605Z,7.23
2022-09-27T18:14:43.181Z,6.80
2022-09-27T18:17:12.210Z,6.27
2022-09-27T18:19:39.230Z,5.43
2022-09-27T18:22:06.581Z,5.93
2022-09-27T18:24:33.171Z,6.23
2022-09-27T18:27:00.234Z,6.20
2022-09-27T18:29:28.014Z,7.13
2022-09-27T18:31:55.029Z,6.77
2022-09-27T18:34:22.898Z,6.03
2022-09-27T18:36:49.662Z,4.97
2022-09-27T18:39:18.465Z,8.97
2022-09-27T18:41:47.945Z,7.07
2022-09-27T18:44:15.332Z,5.37
2022-09-27T18:46:42.703Z,5.13
2022-09-27T18:49:11.726Z,5.30
2022-09-27T18:51:42.931Z,6.37
2022-09-27T18:54:18.673Z,6.13
2022-09-27T18:56:47.132Z,6.47
2022-09-27T18:59:15.108Z,7.07
2022-09-27T19:01:44.759Z,6.10
2022-09-27T19:04:19.253Z,5.97
2022-09-27T19:06:48.325Z,6.27
2022-09-27T19:09:15.185Z,7.60
2022-09-27T19:11:41.772Z,9.00
2022-09-27T19:14:15.000Z,9.97
2022-09-27T19:16:41.359Z,10.60
2022-09-27T19:19:08.734Z,11.37
2022-09-27T19:21:35.276Z,16.10
2022-09-27T19:24:01.739Z,9.37
2022-09-27T19:26:28.424Z,8.97
2022-09-27T19:28:55.198Z,8.53
2022-09-27T19:31:28.840Z,6.43
2022-09-27T19:33:59.921Z,5.83
2022-09-27T19:36:28.261Z,8.13
2022-09-27T19:38:57.725Z,11.90
2022-09-27T19:41:24.296Z,11.33
2022-09-27T19:43:52.366Z,10.70
2022-09-27T19:46:19.879Z,7.97
2022-09-27T19:48:47.560Z,8.17
2022-09-27T19:51:18.931Z,7.73
2022-09-27T19:53:45.675Z,6.87
2022-09-27T19:56:12.716Z,7.50
2022-09-27T19:58:39.952Z,7.80
2022-09-27T20:01:10.976Z,9.10
2022-09-27T20:03:40.160Z,8.87
2022-09-27T20:06:09.480Z,9.23
2022-09-27T20:08:36.003Z,8.47
2022-09-27T20:11:08.071Z,8.50
2022-09-27T20:13:35.433Z,7.40
2022-09-27T20:16:02.138Z,6.73
2022-09-27T20:18:28.815Z,5.93
2022-09-27T20:20:58.958Z,5.33
2022-09-27T20:23:25.234Z,5.77
2022-09-27T20:25:51.497Z,5.47
2022-09-27T20:28:17.941Z,5.60
2022-09-27T20:30:55.028Z,5.00
2022-09-27T20:33:39.955Z,4.67
2022-09-27T20:36:27.223Z,4.73
2022-09-27T20:39:01.165Z,4.63
2022-09-27T20:41:50.410Z,4.43
2022-09-27T20:44:18.999Z,4.53
2022-09-27T20:46:46.793Z,3.80
2022-09-27T20:49:16.870Z,4.07
2022-09-27T20:51:47.674Z,4.13
2022-09-27T20:54:14.360Z,4.60
2022-09-27T20:56:45.656Z,3.93
2022-09-27T20:59:16.927Z,4.17
2022-09-27T21:01:45.393Z,4.50
2022-09-27T21:04:13.728Z,4.10
2022-09-27T21:06:40.410Z,3.50
2022-09-27T21:09:08.099Z,4.17
2022-09-27T21:11:34.947Z,4.33
2022-09-27T21:14:01.665Z,4.30
2022-09-27T21:16:32.491Z,5.60
2022-09-27T21:18:58.661Z,5.30
2022-09-27T21:21:25.980Z,6.53
2022-09-27T21:23:54.772Z,6.53
2022-09-27T21:26:22.454Z,6.40
2022-09-27T21:28:57.556Z,6.70
2022-09-27T21:31:26.362Z,6.23
2022-09-27T21:33:55.280Z,6.33
2022-09-27T21:36:32.284Z,6.57
2022-09-27T21:38:58.864Z,5.87
2022-09-27T21:41:26.307Z,5.33
2022-09-27T21:43:52.734Z,5.73
2022-09-27T21:46:24.612Z,5.97
2022-09-27T21:48:54.810Z,5.90
2022-09-27T21:51:29.607Z,7.20
2022-09-27T21:53:58.341Z,5.87
2022-09-27T21:56:26.992Z,7.03
2022-09-27T21:58:53.278Z,6.17
2022-09-27T22:01:33.441Z,7.20
2022-09-27T22:04:01.394Z,6.13
2022-09-27T22:06:29.974Z,6.00
2022-09-27T22:08:58.162Z,6.50
2022-09-27T22:11:28.481Z,6.63
2022-09-27T22:13:54.759Z,6.47
2022-09-27T22:16:21.776Z,6.33
2022-09-27T22:18:50.560Z,5.70
2022-09-27T22:21:21.970Z,5.97
2022-09-27T22:23:53.250Z,5.87
2022-09-27T22:26:22.202Z,5.57
2022-09-27T22:28:48.867Z,5.57
2022-09-27T22:31:18.138Z,5.57
2022-09-27T22:33:49.884Z,5.50
2022-09-27T22:36:16.961Z,5.40
2022-09-27T22:38:43.525Z,6.00
2022-09-27T22:41:11.335Z,5.43
2022-09-27T22:43:38.750Z,5.90
2022-09-27T22:46:05.082Z,5.13
2022-09-27T22:48:31.726Z,5.17
2022-09-27T22:50:59.507Z,5.17
2022-09-27T22:53:29.728Z,5.37
2022-09-27T22:56:00.669Z,4.83
2022-09-27T22:58:30.081Z,5.00
2022-09-27T23:00:56.429Z,4.93
2022-09-27T23:03:22.794Z,4.17
2022-09-27T23:05:49.239Z,4.37
2022-09-27T23:08:15.308Z,4.10
2022-09-27T23:10:42.264Z,4.13
2022-09-27T23:13:08.540Z,4.10
2022-09-27T23:15:34.810Z,4.50
2022-09-27T23:18:01.407Z,4.07
2022-09-27T23:20:27.742Z,3.90
2022-09-27T23:22:53.871Z,3.50
2022-09-27T23:25:21.392Z,4.40
2022-09-27T23:27:49.537Z,4.00
2022-09-27T23:30:18.482Z,4.30
2022-09-27T23:32:50.739Z,4.40
2022-09-27T23:35:17.122Z,3.83
2022-09-27T23:37:43.719Z,3.93
2022-09-27T23:40:10.033Z,3.73
2022-09-27T23:42:36.378Z,3.80
2022-09-27T23:45:02.849Z,4.27
2022-09-27T23:47:29.352Z,3.90
2022-09-27T23:49:57.521Z,3.80
2022-09-27T23:52:23.922Z,4.07
2022-09-27T23:54:51.223Z,4.17
2022-09-27T23:57:17.588Z,4.10
2022-09-27T23:59:43.850Z,4.07
